Skip Navigation Links
NOAA logo - Click to go to the NOAA homepage
NOAA's National Weather Service
Alaska Aviation Weather Unit
  NWS logo - Click to go to the NWS homepage
Left Navbar Graphic     21 AKDT = 05 GMT

   
NOAA is celebrating 200 years of science, service, and stewardship. Visit the NOAA 200th celebration Web site to learn more.
USA.gov is the U.S. Government's official Web portal to all Federal, state and local government Web resources and services.
Facebook
NWS on Facebook

Important Change Regarding the AAWU Web Presence

 

Over the last several months, the AAWU has been working to navigate its webpages to a nationally supported server. Security, as well as other needs, have necessitated the change.  In the process, we have made an effort to enhance the functionality of our website, as well as some of our products. As of June 27, 2017, aawu.arh.noaa.gov will be discontinued. The new AAWU web address is weather.gov/aawu. It is now live and will run in-parallel with the old site until it is discontinued. Please send any feedback or questions regarding the new webpages to nws.ar.aawu.webauthors@noaa.gov.  Thank you for your patience during this time of transition.
AAWU Home :: Display TAF Add Bookmark
TAF PAYA 250325Z 2503/2524 VRB04KT P6SM VCSH SCT007 BKN060 OVC080
      TEMPO 2503/2506 -SHRA BKN007 BKN012 OVC020
     FM250600 VRB04KT P6SM VCSH SCT025 BKN040 BKN120
     FM251800 30004KT P6SM BKN040 BKN120
      AMD LTD TO CLD VIS AND WIND=

METAR PAYA 242353Z AUTO VRB03KT 10SM -RA FEW012 FEW040 OVC060 13/11 A3011 RMK AO2 SLP195 P0001 60024 T01330111 10133 20122 58001 TSNO= PAYA 250010Z AUTO 00000KT 10SM -RA BKN012 OVC060 13/11 A3010= METAR PAYA 250053Z AUTO 00000KT 10SM OVC013 13/11 A3010 RMK AO2 RAE39 SLP191 P0000 T01330106 TSNO= PAYA 250119Z AUTO 00000KT 10SM SCT012 BKN020 OVC026 14/11 A3009= PAYA 250134Z AUTO 00000KT 10SM FEW010 BKN013 OVC022 14/12 A3009= METAR PAYA 250153Z AUTO 31004KT 10SM SCT010 BKN015 OVC050 14/12 A3008 RMK AO2 SLP187 T01390117 TSNO= PAYA 250159Z AUTO 35004KT 10SM FEW006 SCT010 OVC050 14/12 A3008= PAYA 250241Z AUTO 34005KT 10SM BKN007 BKN055 OVC090 14/12 A3008= METAR PAYA 250253Z AUTO 00000KT 10SM BKN007 OVC085 14/12 A3008 RMK AO2 SLP185 60000 T01390117 56011 TSNO= PAYA 250306Z AUTO 36003KT 10SM SCT007 SCT085 14/12 A3007= METAR PAYA 250353Z AUTO 35003KT 10SM BKN070 13/11 A3007 RMK AO2 SLP182 T01280111 TSNO= METAR PAYA 250453Z AUTO 00000KT 10SM OVC065 12/11 A3006 RMK AO2 SLP180 T01220106 TSNO=
 Alaska TAF Map

NOAA's National Weather Service
Alaska Aviation Weather Unit
6930 Sand Lake Road
Anchorage, AK 99502-1845
Disclaimer
Credits
Glossary
Privacy Policy
About Us
Career Opportunities
Contact AAWU Internet Services Site last modified: April, 17th 2012